createdAt,value
2022-10-26T00:00:43.254Z,5.60
2022-10-26T00:03:13.683Z,3.33
2022-10-26T00:05:43.131Z,4.77
2022-10-26T00:08:16.487Z,3.50
2022-10-26T00:10:48.419Z,4.83
2022-10-26T00:13:17.502Z,3.03
2022-10-26T00:15:46.699Z,4.07
2022-10-26T00:18:17.756Z,7.33
2022-10-26T00:20:48.081Z,5.70
2022-10-26T00:23:20.225Z,3.87
2022-10-26T00:25:57.277Z,3.47
2022-10-26T00:28:26.789Z,3.33
2022-10-26T00:31:07.059Z,2.97
2022-10-26T00:33:36.639Z,3.23
2022-10-26T00:36:06.835Z,3.57
2022-10-26T00:38:38.080Z,4.73
2022-10-26T00:41:06.862Z,4.00
2022-10-26T00:43:40.729Z,4.93
2022-10-26T00:46:13.174Z,4.00
2022-10-26T00:48:44.924Z,2.90
2022-10-26T00:51:17.231Z,2.43
2022-10-26T00:53:53.948Z,4.83
2022-10-26T00:56:23.242Z,2.67
2022-10-26T00:58:52.816Z,4.40
2022-10-26T01:01:22.077Z,8.60
2022-10-26T01:03:51.859Z,3.20
2022-10-26T01:06:21.988Z,5.20
2022-10-26T01:08:53.465Z,3.10
2022-10-26T01:11:23.711Z,3.57
2022-10-26T01:13:54.080Z,5.63
2022-10-26T01:16:34.184Z,4.20
2022-10-26T01:19:13.523Z,2.67
2022-10-26T01:21:48.780Z,2.53
2022-10-26T01:24:39.121Z,2.93
2022-10-26T01:27:16.779Z,3.97
2022-10-26T01:30:05.469Z,2.37
2022-10-26T01:32:40.928Z,6.00
2022-10-26T01:35:11.644Z,5.37
2022-10-26T01:37:44.403Z,3.03
2022-10-26T01:40:19.741Z,3.87
2022-10-26T01:42:52.176Z,2.30
2022-10-26T01:45:22.264Z,3.93
2022-10-26T01:47:56.561Z,4.07
2022-10-26T01:50:26.479Z,2.97
2022-10-26T01:52:56.620Z,1.83
2022-10-26T01:55:51.862Z,2.83
2022-10-26T01:58:34.740Z,3.60
2022-10-26T02:01:07.481Z,7.17
2022-10-26T02:03:44.514Z,5.93
2022-10-26T02:06:20.108Z,2.20
2022-10-26T02:09:07.791Z,2.57
2022-10-26T02:11:41.277Z,3.40
2022-10-26T02:16:48.541Z,5.40
2022-10-26T02:19:25.640Z,2.53
2022-10-26T02:21:59.176Z,1.90
2022-10-26T02:24:30.710Z,4.13
2022-10-26T02:27:02.135Z,2.80
2022-10-26T02:29:38.075Z,5.13
2022-10-26T02:32:09.495Z,3.73
2022-10-26T02:34:41.539Z,2.93
2022-10-26T02:37:25.475Z,7.33
2022-10-26T02:39:55.098Z,5.83
2022-10-26T02:42:25.014Z,2.27
2022-10-26T02:44:55.761Z,4.60
2022-10-26T02:47:24.770Z,2.13
2022-10-26T02:49:56.238Z,3.80
2022-10-26T02:52:26.597Z,3.90
2022-10-26T02:54:57.299Z,7.80
2022-10-26T02:57:26.743Z,3.80
2022-10-26T02:59:57.395Z,4.93
2022-10-26T03:02:26.257Z,7.17
2022-10-26T03:04:56.665Z,1.87
2022-10-26T03:07:26.211Z,2.50
2022-10-26T03:09:56.460Z,2.23
2022-10-26T03:12:25.005Z,4.47
2022-10-26T03:14:54.598Z,3.37
2022-10-26T03:17:23.118Z,3.17
2022-10-26T03:19:51.784Z,4.40
2022-10-26T03:22:21.898Z,5.80
2022-10-26T03:24:50.798Z,2.80
2022-10-26T03:27:19.742Z,2.53
2022-10-26T03:29:48.535Z,2.83
2022-10-26T03:32:17.584Z,4.37
2022-10-26T03:34:46.388Z,3.87
2022-10-26T03:37:14.931Z,4.90
2022-10-26T03:39:46.076Z,2.00
2022-10-26T03:42:14.599Z,3.37
2022-10-26T03:44:43.258Z,4.60
2022-10-26T03:47:12.267Z,4.03
2022-10-26T03:49:42.492Z,2.73
2022-10-26T03:52:26.651Z,6.03
2022-10-26T03:55:25.606Z,3.30
2022-10-26T03:57:59.026Z,4.03
2022-10-26T04:00:41.390Z,2.13
2022-10-26T04:03:14.114Z,2.33
2022-10-26T04:05:51.784Z,6.60
2022-10-26T04:08:22.833Z,3.43
2022-10-26T04:10:51.592Z,2.43
2022-10-26T04:13:24.833Z,2.97
2022-10-26T04:15:56.549Z,3.17
2022-10-26T04:18:25.174Z,2.57
2022-10-26T04:20:57.831Z,3.20
2022-10-26T04:23:26.542Z,2.77
2022-10-26T04:25:55.375Z,2.57
2022-10-26T04:28:27.516Z,3.30
2022-10-26T04:30:56.930Z,2.73
2022-10-26T04:33:26.945Z,3.93
2022-10-26T04:36:00.222Z,2.97
2022-10-26T04:38:29.061Z,3.97
2022-10-26T04:40:58.023Z,3.30
2022-10-26T04:43:28.300Z,3.50
2022-10-26T04:45:57.822Z,4.33
2022-10-26T04:48:26.550Z,3.90
2022-10-26T04:57:04.445Z,4.30
2022-10-26T04:59:35.984Z,4.97
2022-10-26T05:02:08.101Z,3.30
2022-10-26T05:04:50.754Z,6.13
2022-10-26T05:07:28.437Z,3.80
2022-10-26T05:12:40.987Z,3.03
2022-10-26T05:15:20.588Z,3.47
2022-10-26T05:17:53.191Z,3.20
2022-10-26T05:20:29.413Z,3.20
2022-10-26T05:22:58.170Z,3.50
2022-10-26T05:25:27.053Z,4.87
2022-10-26T05:27:59.420Z,5.07
2022-10-26T05:30:29.671Z,7.73
2022-10-26T05:32:58.622Z,8.30
2022-10-26T05:35:27.133Z,3.73
2022-10-26T05:37:56.045Z,4.33
2022-10-26T05:40:26.370Z,4.40
2022-10-26T05:42:55.196Z,5.13
2022-10-26T05:45:23.658Z,3.33
2022-10-26T05:47:57.408Z,4.63
2022-10-26T05:50:28.973Z,4.80
2022-10-26T05:52:58.649Z,4.30
2022-10-26T05:55:27.996Z,4.53
2022-10-26T05:57:57.695Z,2.97
2022-10-26T06:00:27.436Z,5.20
2022-10-26T06:03:10.897Z,3.13
2022-10-26T06:05:46.922Z,7.90
2022-10-26T06:08:15.824Z,3.60
2022-10-26T06:10:44.518Z,5.20
2022-10-26T06:13:13.242Z,4.30
2022-10-26T06:15:47.170Z,3.73
2022-10-26T06:18:20.319Z,5.97
2022-10-26T06:20:57.624Z,3.47
2022-10-26T06:23:34.935Z,6.30
2022-10-26T06:26:07.016Z,5.03
2022-10-26T06:28:40.224Z,8.37
2022-10-26T06:31:10.024Z,8.20
2022-10-26T06:33:38.473Z,8.50
2022-10-26T06:36:16.612Z,9.37
2022-10-26T06:38:46.325Z,13.97
2022-10-26T06:41:18.892Z,8.03
2022-10-26T06:43:47.685Z,6.50
2022-10-26T06:46:22.729Z,3.30
2022-10-26T06:48:53.646Z,11.73
2022-10-26T06:51:23.919Z,4.60
2022-10-26T06:53:55.336Z,5.20
2022-10-26T06:56:25.073Z,4.23
2022-10-26T06:58:55.333Z,7.57
2022-10-26T07:01:23.888Z,6.37
2022-10-26T07:03:52.973Z,5.03
2022-10-26T07:06:23.227Z,4.40
2022-10-26T07:08:52.364Z,3.77
2022-10-26T07:11:20.881Z,5.00
2022-10-26T07:13:51.471Z,6.63
2022-10-26T07:16:21.225Z,10.93
2022-10-26T07:18:52.384Z,4.40
2022-10-26T07:21:27.635Z,6.87
2022-10-26T07:23:57.648Z,4.37
2022-10-26T07:26:28.358Z,8.17
2022-10-26T07:28:57.143Z,5.10
2022-10-26T07:31:26.672Z,4.47
2022-10-26T07:33:56.747Z,5.00
2022-10-26T07:36:25.698Z,7.37
2022-10-26T07:38:54.351Z,6.33
2022-10-26T07:41:25.239Z,2.57
2022-10-26T07:43:53.875Z,3.63
2022-10-26T07:46:23.126Z,4.23
2022-10-26T07:48:51.448Z,4.23
2022-10-26T07:51:20.151Z,3.77
2022-10-26T07:53:48.903Z,4.70
2022-10-26T07:56:17.550Z,8.00
2022-10-26T07:58:47.976Z,4.67
2022-10-26T08:01:17.371Z,5.03
2022-10-26T08:03:46.596Z,5.80
2022-10-26T08:06:15.828Z,2.00
2022-10-26T08:08:47.475Z,2.57
2022-10-26T08:11:16.557Z,4.97
2022-10-26T08:13:45.670Z,2.33
2022-10-26T08:16:18.669Z,1.80
2022-10-26T08:18:49.750Z,3.43
2022-10-26T08:21:21.933Z,3.37
2022-10-26T08:23:55.244Z,4.17
2022-10-26T08:26:24.236Z,2.57
2022-10-26T08:28:53.754Z,1.50
2022-10-26T08:31:24.164Z,2.80
2022-10-26T08:33:52.682Z,2.50
2022-10-26T08:36:22.997Z,3.57
2022-10-26T08:38:52.599Z,6.10
2022-10-26T08:41:25.187Z,3.37
2022-10-26T08:43:55.713Z,3.77
2022-10-26T08:46:27.751Z,2.27
2022-10-26T08:48:58.375Z,2.13
2022-10-26T08:51:30.641Z,3.37
2022-10-26T08:54:01.384Z,7.70
2022-10-26T08:56:31.233Z,2.10
2022-10-26T08:59:02.130Z,3.97
2022-10-26T09:01:33.439Z,2.33
2022-10-26T09:04:03.758Z,1.50
2022-10-26T09:06:37.785Z,2.67
2022-10-26T09:09:09.964Z,1.90
2022-10-26T09:11:54.304Z,5.43
2022-10-26T09:14:27.108Z,3.73
2022-10-26T09:17:03.684Z,3.93
2022-10-26T09:19:49.608Z,2.83
2022-10-26T09:22:21.312Z,1.77
2022-10-26T09:24:54.372Z,2.20
2022-10-26T09:27:26.333Z,1.90
2022-10-26T09:29:55.705Z,3.20
2022-10-26T09:32:43.575Z,1.90
2022-10-26T09:35:15.796Z,2.97
2022-10-26T09:37:48.316Z,3.00
2022-10-26T09:40:20.388Z,4.07
2022-10-26T09:42:52.485Z,2.37
2022-10-26T09:45:24.686Z,3.30
2022-10-26T09:47:55.943Z,4.13
2022-10-26T09:50:25.964Z,2.70
2022-10-26T09:52:54.494Z,1.47
2022-10-26T09:55:24.321Z,1.53
2022-10-26T09:57:55.475Z,3.97
2022-10-26T10:00:25.763Z,7.10
2022-10-26T10:02:56.006Z,6.00
2022-10-26T10:08:21.617Z,2.43
2022-10-26T10:10:56.883Z,5.00
2022-10-26T10:13:26.794Z,4.23
2022-10-26T10:15:57.720Z,2.43
2022-10-26T10:18:27.695Z,5.10
2022-10-26T10:20:57.443Z,2.47
2022-10-26T10:23:33.670Z,1.27
2022-10-26T10:26:11.176Z,5.00
2022-10-26T10:28:40.136Z,2.57
2022-10-26T10:31:20.467Z,2.57
2022-10-26T10:33:50.709Z,4.87
2022-10-26T10:36:22.240Z,2.23
2022-10-26T10:38:52.155Z,3.10
2022-10-26T10:41:22.795Z,3.13
2022-10-26T10:43:52.561Z,2.70
2022-10-26T10:46:22.805Z,3.63
2022-10-26T10:48:56.097Z,4.00
2022-10-26T10:51:26.167Z,4.80
2022-10-26T10:53:56.959Z,2.97
2022-10-26T10:56:43.011Z,3.23
2022-10-26T10:59:32.841Z,2.07
2022-10-26T11:02:06.897Z,4.80
2022-10-26T11:04:48.932Z,3.60
2022-10-26T11:07:18.570Z,5.67
2022-10-26T11:10:01.727Z,2.93
2022-10-26T11:15:03.546Z,6.17
2022-10-26T11:17:33.682Z,3.87
2022-10-26T11:23:29.320Z,6.53
2022-10-26T11:29:11.452Z,7.67
2022-10-26T11:31:44.232Z,3.40
2022-10-26T11:37:10.904Z,4.93
2022-10-26T11:39:55.770Z,4.00
2022-10-26T11:44:59.243Z,5.83
2022-10-26T11:47:35.722Z,5.03
2022-10-26T11:50:08.065Z,3.53
2022-10-26T11:52:40.732Z,7.77
2022-10-26T11:55:24.626Z,5.23
2022-10-26T11:57:54.757Z,4.03
2022-10-26T12:00:24.078Z,3.90
2022-10-26T12:02:57.448Z,6.90
2022-10-26T12:08:19.859Z,6.53
2022-10-26T12:10:54.654Z,6.23
2022-10-26T12:37:42.130Z,8.00
2022-10-26T12:40:33.779Z,5.83
2022-10-26T12:43:28.151Z,5.30
2022-10-26T12:49:44.235Z,4.83
2022-10-26T12:52:23.055Z,3.53
2022-10-26T12:55:12.477Z,8.80
2022-10-26T12:57:49.086Z,6.60
2022-10-26T13:00:20.563Z,7.10
2022-10-26T13:03:01.942Z,8.03
2022-10-26T13:05:57.669Z,4.90
2022-10-26T13:08:27.714Z,3.90
2022-10-26T13:11:15.572Z,6.13
2022-10-26T13:13:46.164Z,9.03
2022-10-26T13:16:15.484Z,5.57
2022-10-26T13:18:44.804Z,5.90
2022-10-26T13:21:24.706Z,5.43
2022-10-26T13:32:22.451Z,6.37
2022-10-26T13:34:54.705Z,8.20
2022-10-26T13:37:27.875Z,6.47
2022-10-26T13:40:00.325Z,6.93
2022-10-26T13:42:45.560Z,5.00
2022-10-26T13:45:29.896Z,7.57
2022-10-26T13:48:07.468Z,7.90
2022-10-26T13:50:42.651Z,9.13
2022-10-26T13:56:26.815Z,8.00
2022-10-26T13:58:57.691Z,8.03
2022-10-26T14:01:29.534Z,7.27
2022-10-26T14:04:05.798Z,5.73
2022-10-26T14:06:39.060Z,6.47
2022-10-26T14:09:16.947Z,9.23
2022-10-26T14:12:00.613Z,6.60
2022-10-26T15:07:10.733Z,7.27
2022-10-26T15:23:32.506Z,5.47
2022-10-26T15:26:27.198Z,7.07
2022-10-26T15:29:12.626Z,9.07
2022-10-26T15:31:59.667Z,6.77
2022-10-26T15:37:25.284Z,7.87
2022-10-26T15:40:03.575Z,7.77
2022-10-26T16:01:32.726Z,4.43
2022-10-26T16:04:01.285Z,11.30
2022-10-26T16:06:31.154Z,8.83
2022-10-26T16:09:00.548Z,7.87
2022-10-26T16:11:36.326Z,8.57
2022-10-26T16:14:19.983Z,9.77
2022-10-26T16:16:50.191Z,9.60
2022-10-26T16:19:30.267Z,11.13
2022-10-26T16:21:59.924Z,18.53
2022-10-26T16:24:28.961Z,9.37
2022-10-26T16:26:58.069Z,10.57
2022-10-26T16:29:26.693Z,13.77
2022-10-26T16:31:56.810Z,13.63
2022-10-26T16:34:25.526Z,23.90
2022-10-26T16:36:54.697Z,21.83
2022-10-26T16:39:23.154Z,19.23
2022-10-26T16:42:02.825Z,26.90
2022-10-26T16:44:31.431Z,21.87
2022-10-26T16:47:25.089Z,24.70
2022-10-26T16:49:53.889Z,29.70
2022-10-26T17:01:01.261Z,15.60
2022-10-26T17:03:34.416Z,18.43
2022-10-26T17:08:47.941Z,25.23
2022-10-26T17:11:18.139Z,13.03
2022-10-26T17:16:44.828Z,8.77
2022-10-26T17:19:16.296Z,7.90
2022-10-26T17:30:19.441Z,16.50
2022-10-26T17:32:50.294Z,12.53
2022-10-26T17:40:43.564Z,7.80
2022-10-26T17:43:27.310Z,9.67
2022-10-26T17:49:02.691Z,18.60
2022-10-26T17:51:33.835Z,18.03
2022-10-26T17:54:17.809Z,27.37
2022-10-26T17:59:44.336Z,19.93
2022-10-26T18:02:14.538Z,24.30
2022-10-26T18:04:47.757Z,14.00
2022-10-26T18:07:18.321Z,22.50
2022-10-26T18:09:47.466Z,26.00
2022-10-26T18:21:21.847Z,19.60
2022-10-26T18:33:03.664Z,13.10
2022-10-26T18:35:48.938Z,17.40
2022-10-26T18:38:32.468Z,11.77
2022-10-26T19:39:55.765Z,30.67
2022-10-26T19:42:24.780Z,21.10
2022-10-26T19:44:57.484Z,22.63
2022-10-26T19:50:24.517Z,13.70
2022-10-26T19:52:54.956Z,13.53
2022-10-26T19:55:25.776Z,7.83
2022-10-26T20:09:36.732Z,8.83
2022-10-26T20:12:12.613Z,12.20
2022-10-26T20:14:41.324Z,12.57
2022-10-26T20:17:11.196Z,13.57
2022-10-26T20:19:48.351Z,17.03
2022-10-26T20:22:17.760Z,20.57
2022-10-26T20:24:48.809Z,15.27
2022-10-26T20:27:18.845Z,13.17
2022-10-26T20:29:48.342Z,18.07
2022-10-26T20:32:18.225Z,16.33
2022-10-26T20:34:47.143Z,7.37
2022-10-26T20:37:17.066Z,9.37
2022-10-26T20:39:45.929Z,11.13
2022-10-26T20:42:23.002Z,7.00
2022-10-26T20:44:55.566Z,10.07
2022-10-26T20:47:24.706Z,12.27
2022-10-26T20:49:56.852Z,15.53
2022-10-26T20:52:31.213Z,8.80
2022-10-26T20:55:09.159Z,8.67
2022-10-26T20:57:50.505Z,9.20
2022-10-26T21:00:20.691Z,16.20
2022-10-26T21:02:49.539Z,9.40
2022-10-26T21:05:22.925Z,11.60
2022-10-26T21:07:52.848Z,8.60
2022-10-26T21:10:25.965Z,7.40
2022-10-26T21:13:00.486Z,11.80
2022-10-26T21:15:30.283Z,8.43
2022-10-26T21:17:59.325Z,7.27
2022-10-26T21:20:28.176Z,13.47
2022-10-26T21:22:58.868Z,9.37
2022-10-26T21:37:54.477Z,11.80
2022-10-26T21:43:22.678Z,9.30
2022-10-26T21:51:47.012Z,7.30
2022-10-26T21:54:21.463Z,9.47
2022-10-26T21:59:36.618Z,9.43
2022-10-26T22:02:29.433Z,12.47
2022-10-26T22:05:00.190Z,6.43
2022-10-26T22:07:36.445Z,5.53
2022-10-26T22:10:11.763Z,8.50
2022-10-26T22:12:42.757Z,6.00
2022-10-26T22:15:12.447Z,4.93
2022-10-26T22:17:42.237Z,7.43
2022-10-26T22:20:16.170Z,6.23
2022-10-26T22:22:47.026Z,10.67
2022-10-26T22:30:46.523Z,13.23
2022-10-26T22:36:26.548Z,7.33
2022-10-26T22:39:12.034Z,12.07
2022-10-26T22:44:44.071Z,5.33
2022-10-26T22:52:54.489Z,7.93
2022-10-26T22:55:27.717Z,6.63
2022-10-26T22:57:57.971Z,10.33
2022-10-26T23:00:27.481Z,8.70
2022-10-26T23:03:04.815Z,9.77
2022-10-26T23:05:45.896Z,32.50
2022-10-26T23:08:19.153Z,5.20
2022-10-26T23:10:53.453Z,13.77
2022-10-26T23:13:30.435Z,6.77
2022-10-26T23:16:06.765Z,7.17
2022-10-26T23:18:43.874Z,5.43
2022-10-26T23:21:19.279Z,8.90
2022-10-26T23:23:51.413Z,8.10
2022-10-26T23:26:24.437Z,5.40
2022-10-26T23:28:56.200Z,5.67
2022-10-26T23:31:33.319Z,5.57
2022-10-26T23:34:04.490Z,7.43
2022-10-26T23:39:36.614Z,7.63
2022-10-26T23:50:52.205Z,9.63
2022-10-26T23:53:25.036Z,6.30
2022-10-26T23:55:56.252Z,8.97
2022-10-26T23:58:27.877Z,7.33
